Hovedside
METAR-TAF:

METAR-TAF

Lufthavner :

Dundee, Skottland

breddegrad: 56-27N, lengdegrad: 003-01W, høyde over havet: 4 m

Gjeldene værobservasjon

Denne rapporten ble laget for 4 timer og 26 minutter siden, klokken 20:20 UTC
Flau vind
Temperatur 3°C
Luftfuktighet 100%
Trykk 983 hPa
Sikt: 9000 m
Få skyer i en høyde av 1000 ft
Spredte skyer i en høyde av 2000 ft
duskregn

METAR: EGPN 282020Z 00000KT 9000 DZ FEW010 SCT020 03/03 Q0983

Tid: 00:46 (00:46 UTC)

Varsel

Denne rapporten ble laget for 6 timer og 20 minutter siden, klokken 18:26 UTC
Varsel gyldig fra 28. klokken 18 UTC til 28. klokken 21 UTC
Vind 7 kt fra Øst
Sikt 10 km eller mer
Spredte skyer i en høyde av 1200 ft
Midlertidig
fra 28. klokken 18 UTC til 28. klokken 21 UTC
Sikt: 4000 m
Brutte skyer i en høyde av 600 ft
regn

TAF: EGPN 281826Z 2818/2821 10007KT 9999 SCT012 TEMPO 2818/2821 4000 RA BKN006

Værobservasjoner og værvarsel for over 4000 flyplasser (METAR- og TAF-rapporter).

Tilgjengelige stasjoner er representert av de røde og gule prikkene på kartet.

Hold musepekeren over prikken for å se navnet på stasjonen.

Klikk så for å se værobservasjoner og -varsler.

For å forandre kartet kan du klikke på den grønne knappen med svart kryss for å zoome inn, på den grønne knappen med strek for å zoome ut, eller på de grønne pilene for å se tilstøtende kart.


METAR-TAF: